Time;durP1;ratioP1;P1;durP2;ratioP2;P2;SDS_P1;SDS_P2;PMS_P1;PMS_P2;Temp;Humidity;BMP_temperature;BMP_pressure;BME280_temperature;BME280_humidity;BME280_pressure;Samples;Min_cycle;Max_cycle;Signal;HPM_P1;HPM_P2
2023/12/06 00:01:33;;;;;;;47.00;30.23;;;0.30;1.00;;;;;;5052811;28;20182;-75
2023/12/06 00:03:58;;;;;;;50.40;29.10;;;0.30;1.00;;;;;;5052691;28;20216;-75
2023/12/06 00:06:24;;;;;;;47.33;27.77;;;0.30;99.90;;;;;;5051817;28;20535;-74
2023/12/06 00:08:52;;;;;;;51.60;28.00;;;0.30;99.90;;;;;;5053044;28;20577;-75
2023/12/06 00:11:19;;;;;;;51.27;27.77;;;0.30;99.90;;;;;;5052877;28;20249;-75
2023/12/06 00:13:44;;;;;;;42.70;29.38;;;0.30;99.90;;;;;;5052982;28;20402;-75
2023/12/06 00:16:10;;;;;;;43.13;28.70;;;0.30;99.90;;;;;;5050933;28;20236;-75
2023/12/06 00:18:36;;;;;;;45.77;29.80;;;0.30;99.90;;;;;;5050930;28;20551;-75
2023/12/06 00:21:02;;;;;;;42.33;27.47;;;0.30;99.90;;;;;;5052156;28;20420;-75
2023/12/06 00:23:27;;;;;;;55.53;29.57;;;0.20;99.90;;;;;;5052605;28;20171;-75
2023/12/06 00:25:53;;;;;;;41.90;27.80;;;0.20;99.90;;;;;;5051774;28;20186;-74
2023/12/06 00:28:19;;;;;;;52.47;29.03;;;0.30;99.90;;;;;;5052637;28;20214;-74
2023/12/06 00:30:44;;;;;;;51.33;29.60;;;0.30;99.90;;;;;;5052215;28;20179;-75
2023/12/06 00:33:10;;;;;;;48.67;30.00;;;0.30;99.90;;;;;;5052417;28;20167;-75
2023/12/06 00:35:36;;;;;;;44.00;28.00;;;0.20;99.90;;;;;;5050238;28;20221;-75
2023/12/06 00:38:01;;;;;;;40.83;26.47;;;0.20;99.90;;;;;;5052330;28;20191;-75
2023/12/06 00:40:28;;;;;;;48.43;27.57;;;0.20;99.90;;;;;;5054174;28;20202;-75
2023/12/06 00:42:53;;;;;;;47.90;30.45;;;0.20;99.90;;;;;;5056271;28;20197;-75
2023/12/06 00:45:19;;;;;;;51.73;30.37;;;0.30;99.90;;;;;;5055415;28;20167;-74
2023/12/06 00:47:45;;;;;;;46.77;28.70;;;0.30;99.90;;;;;;5051738;28;20207;-75
2023/12/06 00:50:11;;;;;;;51.10;31.30;;;0.30;99.90;;;;;;5055150;28;20833;-75
2023/12/06 00:52:36;;;;;;;46.30;28.10;;;0.30;99.90;;;;;;5073985;28;20212;-75
2023/12/06 00:55:03;;;;;;;49.60;27.20;;;0.30;99.90;;;;;;5075107;28;20162;-75
2023/12/06 00:57:29;;;;;;;42.27;28.67;;;0.40;99.90;;;;;;5074538;28;20550;-75
2023/12/06 00:59:55;;;;;;;46.87;26.93;;;0.30;99.90;;;;;;5057846;28;20413;-76
2023/12/06 01:02:21;;;;;;;42.40;27.57;;;0.30;99.90;;;;;;5055192;28;20252;-75
2023/12/06 01:04:50;;;;;;;40.70;26.17;;;0.40;99.90;;;;;;5054005;28;20193;-75
2023/12/06 01:07:17;;;;;;;45.90;29.88;;;0.40;99.90;;;;;;5055744;28;20992;-75
2023/12/06 01:09:44;;;;;;;47.40;25.90;;;0.30;99.90;;;;;;5055419;28;20171;-76
2023/12/06 01:12:09;;;;;;;49.00;29.00;;;0.30;99.90;;;;;;5054539;28;20420;-75
2023/12/06 01:14:35;;;;;;;46.10;27.47;;;0.30;99.90;;;;;;5054456;28;20874;-75
2023/12/06 01:17:01;;;;;;;43.30;27.30;;;0.30;99.90;;;;;;5055268;28;20309;-75
2023/12/06 01:19:26;;;;;;;48.50;27.07;;;0.30;99.90;;;;;;5055161;28;20174;-75
2023/12/06 01:21:52;;;;;;;43.07;26.67;;;0.30;99.90;;;;;;5054668;28;20586;-75
2023/12/06 01:24:18;;;;;;;39.70;25.17;;;0.30;99.90;;;;;;5055789;28;20663;-74
2023/12/06 01:26:43;;;;;;;41.07;24.80;;;0.30;99.90;;;;;;5054220;28;20671;-75
2023/12/06 01:29:09;;;;;;;42.20;26.97;;;0.30;99.90;;;;;;5055156;28;20232;-75
2023/12/06 01:31:35;;;;;;;36.43;24.83;;;0.30;99.90;;;;;;5054753;28;20288;-75
2023/12/06 01:34:01;;;;;;;42.03;25.87;;;0.30;99.90;;;;;;5055760;28;20202;-74
2023/12/06 01:36:26;;;;;;;41.37;26.37;;;0.30;99.90;;;;;;5054560;28;20212;-75
2023/12/06 01:38:52;;;;;;;41.00;25.47;;;0.30;99.90;;;;;;5054024;28;20175;-75
2023/12/06 01:41:18;;;;;;;41.87;25.93;;;0.40;99.90;;;;;;5055213;28;20413;-74
2023/12/06 01:43:44;;;;;;;36.13;23.07;;;0.30;99.90;;;;;;5054100;28;20852;-74
2023/12/06 01:46:10;;;;;;;34.80;23.65;;;0.40;99.90;;;;;;5052946;28;20248;-74
2023/12/06 01:48:42;;;;;;;39.85;24.00;;;0.40;99.90;;;;;;5054936;28;20218;-75
2023/12/06 01:51:08;;;;;;;37.05;25.40;;;0.40;99.90;;;;;;5052272;28;20182;-75
2023/12/06 01:53:34;;;;;;;42.07;23.57;;;0.30;99.90;;;;;;5054865;28;20181;-74
2023/12/06 01:56:00;;;;;;;38.50;24.50;;;0.40;99.90;;;;;;5053353;28;20409;-75
2023/12/06 01:58:28;;;;;;;36.53;25.13;;;0.40;99.90;;;;;;5054790;28;20558;-74
2023/12/06 02:00:55;;;;;;;35.80;23.10;;;0.40;99.90;;;;;;5053029;28;20628;-75
2023/12/06 02:03:21;;;;;;;42.10;27.43;;;0.40;99.90;;;;;;5054430;28;20413;-74
2023/12/06 02:05:48;;;;;;;40.47;24.88;;;0.40;99.90;;;;;;5053956;28;20397;-75
2023/12/06 02:08:14;;;;;;;40.92;22.85;;;0.40;99.90;;;;;;5054218;28;20257;-75
2023/12/06 02:10:40;;;;;;;39.33;25.20;;;0.40;99.90;;;;;;5053535;28;20171;-75
2023/12/06 02:13:05;;;;;;;38.93;25.10;;;0.40;99.90;;;;;;5054566;28;20255;-75
2023/12/06 02:15:31;;;;;;;42.63;24.10;;;0.40;99.90;;;;;;5053971;28;20616;-74
2023/12/06 02:17:57;;;;;;;38.90;25.10;;;0.30;99.90;;;;;;5054289;28;20265;-75
2023/12/06 02:20:24;;;;;;;38.73;24.37;;;0.30;99.90;;;;;;5053455;28;20216;-74
2023/12/06 02:22:52;;;;;;;44.80;24.10;;;0.30;99.90;;;;;;5052963;28;20424;-74
2023/12/06 02:25:18;;;;;;;40.10;24.25;;;0.30;1.00;;;;;;5052069;28;20490;-75
2023/12/06 02:27:45;;;;;;;43.70;27.43;;;0.40;1.00;;;;;;5053349;28;20210;-75
2023/12/06 02:30:12;;;;;;;40.00;25.77;;;0.40;1.00;;;;;;5053470;28;20178;-76
2023/12/06 02:32:38;;;;;;;50.87;28.73;;;0.40;1.00;;;;;;5052495;28;20413;-74
2023/12/06 02:35:12;;;;;;;39.37;26.33;;;0.40;1.00;;;;;;5053543;28;20410;-74
2023/12/06 02:37:40;;;;;;;45.80;27.33;;;0.50;1.00;;;;;;5053983;28;20439;-74
2023/12/06 02:40:10;;;;;;;49.53;28.33;;;0.50;1.00;;;;;;5052651;28;20417;-75
2023/12/06 02:42:36;;;;;;;46.87;27.97;;;0.50;1.00;;;;;;5046958;28;20520;-74
2023/12/06 02:45:02;;;;;;;45.80;27.77;;;0.40;1.00;;;;;;5033377;28;20441;-74
2023/12/06 02:47:28;;;;;;;48.67;30.30;;;0.40;1.00;;;;;;5043595;28;20254;-75
2023/12/06 02:49:53;;;;;;;51.87;28.03;;;0.40;1.00;;;;;;5053667;28;20497;-74
2023/12/06 02:52:19;;;;;;;47.43;30.53;;;0.40;1.00;;;;;;5052370;28;20167;-74
2023/12/06 02:54:45;;;;;;;52.63;27.60;;;0.40;1.00;;;;;;5053071;28;20171;-74
2023/12/06 02:57:11;;;;;;;53.80;30.43;;;0.50;1.00;;;;;;5053764;28;20760;-74
2023/12/06 02:59:36;;;;;;;54.27;29.00;;;0.40;1.00;;;;;;5053395;28;20178;-74
2023/12/06 03:02:02;;;;;;;48.50;29.67;;;0.40;1.00;;;;;;5056562;28;20591;-75
2023/12/06 03:04:28;;;;;;;54.63;30.77;;;0.30;1.00;;;;;;5050912;28;20520;-74
2023/12/06 03:06:53;;;;;;;51.57;30.23;;;0.30;1.00;;;;;;5052805;28;20672;-74
2023/12/06 03:09:19;;;;;;;53.37;33.60;;;0.30;1.00;;;;;;5053623;28;20163;-75
2023/12/06 03:11:45;;;;;;;56.57;31.37;;;0.40;1.00;;;;;;5053792;28;20178;-74
2023/12/06 03:14:10;;;;;;;49.27;28.17;;;0.40;1.00;;;;;;5052269;28;20527;-75
2023/12/06 03:16:36;;;;;;;51.70;32.40;;;0.40;1.00;;;;;;5051011;28;20175;-75
2023/12/06 03:19:02;;;;;;;53.13;29.13;;;0.50;1.00;;;;;;5051741;28;20179;-74
2023/12/06 03:21:28;;;;;;;56.42;31.40;;;0.40;1.00;;;;;;5052596;28;20171;-75
2023/12/06 03:23:54;;;;;;;53.73;31.30;;;0.50;1.00;;;;;;5052662;28;20195;-75
2023/12/06 03:26:20;;;;;;;57.23;30.83;;;0.50;1.00;;;;;;5052401;28;20191;-74
2023/12/06 03:28:46;;;;;;;45.37;27.67;;;0.50;1.00;;;;;;5052031;28;20448;-75
2023/12/06 03:31:11;;;;;;;58.07;33.13;;;0.60;1.00;;;;;;5053054;28;20162;-74
2023/12/06 03:33:37;;;;;;;60.73;30.40;;;0.50;1.00;;;;;;5053342;28;20167;-74
2023/12/06 03:36:03;;;;;;;53.83;28.93;;;0.60;1.00;;;;;;5051337;28;20202;-75
2023/12/06 03:38:29;;;;;;;55.87;29.63;;;0.50;1.00;;;;;;5051244;28;20222;-74
2023/12/06 03:40:54;;;;;;;55.40;31.20;;;0.50;1.00;;;;;;5052884;28;20417;-74
2023/12/06 03:43:20;;;;;;;50.40;28.60;;;0.50;1.00;;;;;;5053265;28;20167;-74
2023/12/06 03:45:46;;;;;;;50.63;29.40;;;0.50;1.00;;;;;;5052453;28;20175;-74
2023/12/06 03:48:11;;;;;;;47.70;29.93;;;0.50;1.00;;;;;;5053157;28;20223;-74
2023/12/06 03:50:37;;;;;;;48.70;30.20;;;0.40;1.00;;;;;;5051811;28;20170;-74
2023/12/06 03:53:03;;;;;;;54.73;29.00;;;0.40;1.00;;;;;;5052912;28;20174;-75
2023/12/06 03:55:28;;;;;;;58.40;32.70;;;0.40;1.00;;;;;;5052221;28;20242;-74
2023/12/06 03:57:54;;;;;;;51.47;29.60;;;0.40;1.00;;;;;;5052510;28;20516;-74
2023/12/06 04:00:20;;;;;;;64.10;31.80;;;0.40;1.00;;;;;;5052890;28;20194;-74
2023/12/06 04:02:46;;;;;;;53.33;31.23;;;0.50;1.00;;;;;;5052884;28;20170;-75
2023/12/06 04:05:12;;;;;;;54.90;32.30;;;0.50;1.00;;;;;;5051664;28;20429;-74
2023/12/06 04:07:39;;;;;;;56.17;30.63;;;0.50;1.00;;;;;;5052358;28;20685;-74
2023/12/06 04:10:05;;;;;;;57.45;31.52;;;0.50;1.00;;;;;;5053069;28;20751;-74
2023/12/06 04:12:31;;;;;;;57.83;33.00;;;0.50;1.00;;;;;;5052720;28;20185;-75
2023/12/06 04:14:56;;;;;;;56.53;31.67;;;0.50;1.00;;;;;;5052711;28;20405;-75
2023/12/06 04:17:22;;;;;;;56.43;32.90;;;0.50;1.00;;;;;;5055317;28;20190;-74
2023/12/06 04:19:48;;;;;;;63.80;35.33;;;0.50;1.00;;;;;;5055831;28;20690;-74
2023/12/06 04:22:13;;;;;;;66.40;34.33;;;0.60;1.00;;;;;;5056688;28;20524;-74
2023/12/06 04:24:39;;;;;;;59.13;31.30;;;0.60;1.00;;;;;;5054453;28;20237;-75
2023/12/06 04:27:05;;;;;;;60.03;33.00;;;0.60;1.00;;;;;;5056346;28;20198;-75
2023/12/06 04:29:32;;;;;;;49.40;31.93;;;0.60;1.00;;;;;;5056740;28;20171;-75
2023/12/06 04:31:57;;;;;;;66.93;31.17;;;0.60;1.00;;;;;;5054731;28;20171;-75
2023/12/06 04:34:23;;;;;;;57.50;31.00;;;0.60;1.00;;;;;;5055446;28;20412;-77
2023/12/06 04:36:48;;;;;;;56.60;33.77;;;0.60;1.00;;;;;;5054051;28;20252;-74
2023/12/06 04:39:14;;;;;;;57.60;31.90;;;0.60;1.00;;;;;;5055122;28;20199;-74
2023/12/06 04:41:40;;;;;;;56.07;31.93;;;0.60;1.00;;;;;;5054768;28;20176;-74
2023/12/06 04:44:05;;;;;;;69.50;37.00;;;0.50;1.00;;;;;;5050576;28;20203;-74
2023/12/06 04:46:31;;;;;;;69.93;34.17;;;0.40;1.00;;;;;;5054203;28;20194;-74
2023/12/06 04:48:57;;;;;;;66.60;34.77;;;0.50;1.00;;;;;;5055874;28;20167;-75
2023/12/06 04:51:22;;;;;;;66.87;34.83;;;0.50;1.00;;;;;;5055777;28;20186;-74
2023/12/06 04:53:48;;;;;;;67.80;33.90;;;0.60;1.00;;;;;;5056198;28;20171;-74
2023/12/06 04:56:15;;;;;;;55.10;35.53;;;0.60;1.00;;;;;;5055422;28;20571;-74
2023/12/06 04:58:40;;;;;;;68.67;35.80;;;0.60;1.00;;;;;;5054833;28;20437;-74
2023/12/06 05:01:06;;;;;;;75.77;37.30;;;0.50;1.00;;;;;;5055849;28;20911;-75
2023/12/06 05:03:32;;;;;;;66.93;36.87;;;0.50;1.00;;;;;;5055962;28;20690;-74
2023/12/06 05:05:57;;;;;;;72.37;35.50;;;0.60;1.00;;;;;;5055008;28;20163;-74
2023/12/06 05:08:23;;;;;;;66.53;36.70;;;0.60;1.00;;;;;;5055105;28;20578;-74
2023/12/06 05:10:49;;;;;;;64.90;35.70;;;0.50;1.00;;;;;;5055773;28;20169;-74
2023/12/06 05:13:15;;;;;;;70.67;36.87;;;0.60;1.00;;;;;;5055604;28;20206;-75
2023/12/06 05:15:40;;;;;;;73.33;37.37;;;0.50;1.00;;;;;;5055028;28;20178;-74
2023/12/06 05:18:07;;;;;;;76.07;39.57;;;0.60;1.00;;;;;;5055659;28;20475;-74
2023/12/06 05:20:33;;;;;;;72.13;37.43;;;0.60;1.00;;;;;;5055581;28;20550;-74
2023/12/06 05:22:58;;;;;;;75.27;40.93;;;0.60;1.00;;;;;;5055613;28;20482;-74
2023/12/06 05:25:24;;;;;;;76.40;40.00;;;0.60;1.00;;;;;;5053463;28;20483;-74
2023/12/06 05:27:50;;;;;;;84.90;40.90;;;0.60;1.00;;;;;;5052566;28;20282;-74
2023/12/06 05:30:15;;;;;;;83.87;43.17;;;0.50;1.00;;;;;;5054080;28;20179;-74
2023/12/06 05:32:41;;;;;;;75.43;38.90;;;0.50;1.00;;;;;;5055201;28;20693;-74
2023/12/06 05:35:07;;;;;;;87.57;40.20;;;0.50;1.00;;;;;;5054407;28;20221;-74
2023/12/06 05:37:33;;;;;;;77.93;39.73;;;0.60;1.00;;;;;;5055032;28;20186;-75
2023/12/06 05:39:59;;;;;;;92.47;42.13;;;0.60;1.00;;;;;;5055264;28;20490;-74
2023/12/06 05:42:24;;;;;;;88.87;42.83;;;0.60;1.00;;;;;;5055300;28;20570;-74
2023/12/06 05:44:50;;;;;;;75.60;40.20;;;0.60;1.00;;;;;;5053703;28;20657;-74
2023/12/06 05:47:16;;;;;;;83.70;44.20;;;0.60;1.00;;;;;;5054930;28;20199;-74
2023/12/06 05:49:42;;;;;;;90.53;43.07;;;0.40;1.00;;;;;;5055088;28;20296;-74
2023/12/06 05:52:07;;;;;;;88.33;43.60;;;0.50;1.00;;;;;;5055370;28;20159;-74
2023/12/06 05:54:33;;;;;;;81.07;43.03;;;0.50;1.00;;;;;;5053850;28;20413;-74
2023/12/06 05:56:59;;;;;;;87.73;44.83;;;0.40;1.00;;;;;;5055070;28;20662;-74
2023/12/06 05:59:25;;;;;;;83.53;41.40;;;0.40;1.00;;;;;;5054492;28;20397;-74
2023/12/06 06:01:51;;;;;;;84.57;43.00;;;0.40;1.00;;;;;;5054042;28;20174;-74
2023/12/06 06:04:17;;;;;;;91.27;43.87;;;0.50;1.00;;;;;;5054776;28;20404;-74
2023/12/06 06:06:42;;;;;;;92.63;43.20;;;0.60;1.00;;;;;;5053760;28;20659;-74
2023/12/06 06:09:09;;;;;;;93.63;43.07;;;0.50;1.00;;;;;;5054970;28;20174;-74
2023/12/06 06:11:34;;;;;;;92.70;46.27;;;0.60;1.00;;;;;;5054564;28;20167;-75
2023/12/06 06:14:00;;;;;;;89.10;45.40;;;0.70;1.00;;;;;;5053571;28;20568;-74
2023/12/06 06:16:26;;;;;;;82.30;43.30;;;0.60;1.00;;;;;;5053732;28;20254;-75
2023/12/06 06:18:52;;;;;;;97.47;48.00;;;0.60;1.00;;;;;;5052954;28;20262;-75
2023/12/06 06:21:18;;;;;;;100.30;45.67;;;0.70;1.00;;;;;;5054090;28;20947;-74
2023/12/06 06:23:45;;;;;;;92.63;47.67;;;0.70;1.00;;;;;;5054268;28;20177;-74
2023/12/06 06:26:11;;;;;;;87.67;42.80;;;0.70;1.00;;;;;;5053457;28;20973;-74
2023/12/06 06:28:37;;;;;;;89.47;45.67;;;0.70;1.00;;;;;;5054473;28;20424;-74
2023/12/06 06:31:03;;;;;;;88.10;42.60;;;0.80;1.00;;;;;;5054245;28;20405;-74
2023/12/06 06:33:30;;;;;;;98.57;47.20;;;0.60;1.00;;;;;;5053882;28;20405;-74
2023/12/06 06:35:56;;;;;;;80.93;42.17;;;0.60;1.00;;;;;;5053270;28;20394;-75
2023/12/06 06:38:21;;;;;;;88.23;42.70;;;0.70;1.00;;;;;;5052285;28;20456;-74
2023/12/06 06:40:47;;;;;;;90.90;44.50;;;0.60;1.00;;;;;;5049039;28;20225;-74
2023/12/06 06:43:12;;;;;;;100.03;46.80;;;0.60;1.00;;;;;;5053021;28;20253;-74
2023/12/06 06:45:42;;;;;;;84.93;44.83;;;0.70;1.00;;;;;;5052995;28;20194;-74
2023/12/06 06:48:09;;;;;;;85.82;44.95;;;0.70;1.00;;;;;;5053830;28;20203;-74
2023/12/06 06:50:35;;;;;;;80.27;43.30;;;0.70;1.00;;;;;;5054435;28;20658;-74
2023/12/06 06:53:01;;;;;;;90.90;46.90;;;0.70;1.00;;;;;;5054097;28;20397;-74
2023/12/06 06:55:27;;;;;;;97.60;48.57;;;0.70;1.00;;;;;;5052844;28;20869;-74
2023/12/06 06:57:53;;;;;;;94.70;47.63;;;0.70;1.00;;;;;;5052470;28;20195;-75
2023/12/06 07:00:20;;;;;;;92.17;44.70;;;0.70;1.00;;;;;;5053322;28;20166;-74
2023/12/06 07:02:47;;;;;;;101.43;45.40;;;0.70;1.00;;;;;;5053477;28;20394;-74
2023/12/06 07:05:13;;;;;;;93.67;45.63;;;0.70;1.00;;;;;;5052707;28;20401;-74
2023/12/06 07:07:40;;;;;;;88.40;44.77;;;0.70;1.00;;;;;;5053738;28;20953;-75
2023/12/06 07:10:07;;;;;;;103.97;46.10;;;0.70;1.00;;;;;;5052599;28;20408;-75
2023/12/06 07:12:32;;;;;;;85.73;42.47;;;0.80;1.00;;;;;;5053496;28;20409;-74
2023/12/06 07:14:59;;;;;;;80.17;42.90;;;0.80;1.00;;;;;;5052240;28;20451;-74
2023/12/06 07:17:25;;;;;;;96.80;46.33;;;0.80;1.00;;;;;;5052881;28;20494;-74
2023/12/06 07:19:51;;;;;;;85.37;45.00;;;0.70;1.00;;;;;;5050013;28;20429;-74
2023/12/06 07:22:17;;;;;;;92.97;45.80;;;0.70;1.00;;;;;;5052490;28;20446;-74
2023/12/06 07:24:42;;;;;;;90.00;44.37;;;0.70;1.00;;;;;;5051865;28;20186;-74
2023/12/06 07:27:09;;;;;;;88.77;43.93;;;0.70;1.00;;;;;;5073560;28;20198;-73
2023/12/06 07:29:36;;;;;;;93.13;45.07;;;0.70;1.00;;;;;;5073186;28;20165;-74
2023/12/06 07:32:02;;;;;;;83.73;44.27;;;0.80;1.00;;;;;;5072853;28;20896;-74
2023/12/06 07:34:28;;;;;;;96.20;45.40;;;0.80;1.00;;;;;;5072683;28;20392;-74
2023/12/06 07:36:53;;;;;;;88.63;43.60;;;0.80;1.00;;;;;;5069564;28;20186;-76
2023/12/06 07:39:20;;;;;;;89.27;46.60;;;0.90;1.00;;;;;;5050190;28;20240;-74
2023/12/06 07:41:46;;;;;;;98.93;46.67;;;0.70;1.00;;;;;;5033125;28;20176;-74
2023/12/06 07:44:13;;;;;;;97.83;45.23;;;0.70;1.00;;;;;;5033290;28;20410;-74
2023/12/06 07:46:38;;;;;;;84.07;42.13;;;0.80;1.00;;;;;;5065328;28;20517;-74
2023/12/06 07:49:04;;;;;;;91.73;45.30;;;0.80;1.00;;;;;;5072923;28;20409;-73
2023/12/06 07:51:30;;;;;;;85.10;41.97;;;0.90;1.00;;;;;;5071101;28;20177;-75
2023/12/06 07:53:56;;;;;;;94.77;48.47;;;0.90;1.00;;;;;;5072951;28;20243;-74
2023/12/06 07:56:22;;;;;;;94.40;43.47;;;0.90;1.00;;;;;;5064667;28;20217;-73
2023/12/06 07:58:50;;;;;;;97.10;45.93;;;0.80;1.00;;;;;;5060404;28;20851;-74
2023/12/06 08:01:16;;;;;;;92.10;45.30;;;0.90;1.00;;;;;;5055521;28;20420;-74
2023/12/06 08:03:44;;;;;;;86.33;47.13;;;1.00;1.00;;;;;;5053296;28;20402;-74
2023/12/06 08:06:10;;;;;;;101.60;48.53;;;1.00;1.00;;;;;;5063900;28;20416;-76
2023/12/06 08:08:35;;;;;;;84.20;45.50;;;0.90;1.00;;;;;;5046184;28;20442;-76
2023/12/06 08:11:01;;;;;;;91.23;46.40;;;0.90;1.00;;;;;;5063506;28;20267;-74
2023/12/06 08:13:27;;;;;;;88.87;45.23;;;1.00;1.00;;;;;;5051516;28;20292;-76
2023/12/06 08:15:53;;;;;;;99.67;48.43;;;1.00;1.00;;;;;;5050781;28;20175;-74
2023/12/06 08:18:19;;;;;;;99.17;47.03;;;1.10;1.00;;;;;;5052482;28;20456;-74
2023/12/06 08:20:44;;;;;;;88.93;45.10;;;1.10;1.00;;;;;;5059890;28;20270;-75
2023/12/06 08:23:10;;;;;;;102.00;47.97;;;1.10;1.00;;;;;;5057341;28;20182;-74
2023/12/06 08:25:36;;;;;;;92.70;45.27;;;1.10;1.00;;;;;;5059373;28;20193;-75
2023/12/06 08:28:01;;;;;;;90.47;45.20;;;1.10;1.00;;;;;;5066306;28;20305;-70
2023/12/06 08:30:28;;;;;;;91.60;44.83;;;1.00;1.00;;;;;;5052209;28;20185;-72
2023/12/06 08:32:54;;;;;;;102.37;48.23;;;1.00;1.00;;;;;;5050737;28;20167;-72
2023/12/06 08:35:20;;;;;;;97.07;47.27;;;1.00;1.00;;;;;;5069392;28;20422;-68
2023/12/06 08:37:45;;;;;;;97.33;46.37;;;1.00;1.00;;;;;;5069946;28;20722;-73
2023/12/06 08:40:12;;;;;;;98.30;43.47;;;1.10;1.00;;;;;;5061271;28;20507;-71
2023/12/06 08:42:39;;;;;;;95.17;47.57;;;1.10;1.00;;;;;;5051964;28;20174;-72
2023/12/06 08:45:06;;;;;;;100.20;48.47;;;1.20;1.00;;;;;;5063659;28;20433;-71
2023/12/06 08:47:32;;;;;;;101.00;50.10;;;1.20;1.00;;;;;;5072348;28;20531;-72
2023/12/06 08:49:58;;;;;;;102.50;49.77;;;1.20;1.00;;;;;;5072112;28;20937;-72
2023/12/06 08:52:24;;;;;;;101.00;50.37;;;1.30;1.00;;;;;;5071654;28;20503;-70
2023/12/06 08:54:49;;;;;;;100.90;49.53;;;1.30;1.00;;;;;;5070599;28;20435;-72
2023/12/06 08:57:15;;;;;;;98.13;48.47;;;1.30;1.00;;;;;;5048663;28;20203;-73
2023/12/06 08:59:41;;;;;;;107.00;49.70;;;1.30;1.00;;;;;;5050781;28;20179;-71
2023/12/06 09:02:06;;;;;;;102.97;50.57;;;1.20;1.00;;;;;;5053216;28;20175;-71
2023/12/06 09:04:33;;;;;;;107.37;48.83;;;1.20;1.00;;;;;;5055183;28;20687;-76
2023/12/06 09:06:59;;;;;;;107.60;52.40;;;1.30;1.00;;;;;;5055445;28;20201;-73
2023/12/06 09:09:24;;;;;;;102.40;52.00;;;1.30;1.00;;;;;;5053938;28;20976;-72
2023/12/06 09:11:50;;;;;;;96.77;50.10;;;1.30;1.00;;;;;;5061943;28;20205;-72
2023/12/06 09:14:16;;;;;;;94.57;46.50;;;1.30;1.00;;;;;;5055823;28;20234;-72
2023/12/06 09:16:42;;;;;;;103.50;47.03;;;1.20;1.00;;;;;;5053514;28;20713;-72
2023/12/06 09:19:08;;;;;;;105.03;49.60;;;1.20;1.00;;;;;;5054972;28;21018;-70
2023/12/06 09:21:45;;;;;;;102.90;46.70;;;1.30;1.00;;;;;;5058942;28;20535;-69
2023/12/06 09:24:11;;;;;;;102.80;47.47;;;1.20;1.00;;;;;;5061961;28;20475;-67
2023/12/06 09:26:40;;;;;;;112.37;51.07;;;1.20;1.00;;;;;;5053782;28;20500;-69
2023/12/06 09:29:11;;;;;;;95.60;46.17;;;1.20;1.00;;;;;;5047603;28;20460;-68
2023/12/06 09:31:37;;;;;;;102.97;51.87;;;1.30;1.00;;;;;;5055909;28;20458;-70
2023/12/06 09:34:05;;;;;;;97.63;49.00;;;1.30;1.00;;;;;;5056109;28;20430;-68
2023/12/06 09:36:31;;;;;;;103.70;47.80;;;1.20;1.00;;;;;;5052345;28;20426;-71
2023/12/06 09:38:58;;;;;;;104.13;48.17;;;1.20;1.00;;;;;;5052205;28;20448;-68
2023/12/06 09:41:33;;;;;;;100.40;46.27;;;1.20;1.00;;;;;;5055105;28;20555;-71
2023/12/06 09:44:00;;;;;;;108.07;50.97;;;1.30;1.00;;;;;;5044047;28;20848;-71
2023/12/06 09:46:26;;;;;;;110.30;48.23;;;1.30;1.00;;;;;;5052016;28;20429;-70
2023/12/06 09:48:54;;;;;;;94.97;48.63;;;1.30;1.00;;;;;;5051062;28;20456;-75
2023/12/06 09:51:22;;;;;;;97.07;47.93;;;1.40;1.00;;;;;;5060082;28;20269;-75
2023/12/06 09:53:47;;;;;;;107.17;48.80;;;1.40;1.00;;;;;;5074989;28;20397;-74
2023/12/06 09:56:13;;;;;;;93.57;48.50;;;1.50;1.00;;;;;;5053236;28;20429;-74
2023/12/06 09:58:40;;;;;;;117.70;50.47;;;1.50;1.00;;;;;;5053051;28;20198;-74
2023/12/06 10:01:05;;;;;;;107.97;49.67;;;1.60;1.00;;;;;;5057910;28;20428;-74
2023/12/06 10:03:32;;;;;;;94.47;49.23;;;1.60;1.00;;;;;;5052889;28;20418;-74
2023/12/06 10:06:03;;;;;;;97.17;48.73;;;1.70;1.00;;;;;;5055801;28;20821;-72
2023/12/06 10:08:31;;;;;;;97.90;49.10;;;1.70;1.00;;;;;;5074435;28;20463;-74
2023/12/06 10:11:15;;;;;;;93.40;47.97;;;1.80;1.00;;;;;;5063502;28;20433;-75
2023/12/06 10:13:41;;;;;;;96.67;50.40;;;1.90;1.00;;;;;;5060930;28;20432;-74
2023/12/06 10:16:14;;;;;;;103.33;48.53;;;1.90;1.00;;;;;;5053584;28;20983;-74
2023/12/06 10:18:40;;;;;;;96.17;47.37;;;1.90;1.00;;;;;;5053181;28;20433;-75
2023/12/06 10:21:06;;;;;;;88.90;47.50;;;1.90;1.00;;;;;;5051184;28;20479;-74
2023/12/06 10:23:32;;;;;;;90.03;46.23;;;1.80;1.00;;;;;;5060649;28;20453;-74
2023/12/06 10:25:58;;;;;;;95.30;48.57;;;1.80;99.90;;;;;;5071120;28;20505;-74
2023/12/06 10:28:24;;;;;;;101.87;48.20;;;1.70;99.90;;;;;;5071557;28;20471;-73
2023/12/06 10:31:01;;;;;;;94.90;47.80;;;1.70;99.90;;;;;;5074337;28;20212;-74
2023/12/06 10:33:32;;;;;;;100.97;48.80;;;1.70;99.90;;;;;;5062072;28;20412;-76
2023/12/06 10:36:00;;;;;;;84.77;45.83;;;1.70;99.90;;;;;;5069967;28;20420;-74
2023/12/06 10:38:27;;;;;;;88.37;47.40;;;1.70;99.90;;;;;;5058862;28;20449;-74
2023/12/06 10:40:58;;;;;;;101.43;47.40;;;1.70;99.90;;;;;;5052032;28;20513;-73
2023/12/06 10:43:26;;;;;;;84.33;44.70;;;1.70;99.90;;;;;;5059189;28;20514;-74
2023/12/06 10:45:53;;;;;;;78.77;46.57;;;1.80;99.90;;;;;;5061988;28;20425;-75
2023/12/06 10:48:20;;;;;;;89.93;48.17;;;1.70;99.90;;;;;;5062067;28;20492;-74
2023/12/06 10:50:45;;;;;;;80.77;44.67;;;1.80;99.90;;;;;;5062895;28;20462;-72
2023/12/06 10:53:16;;;;;;;92.90;47.27;;;1.80;99.90;;;;;;5047823;28;20450;-72
2023/12/06 10:55:42;;;;;;;82.00;44.07;;;1.80;99.90;;;;;;5060902;28;20692;-75
2023/12/06 10:58:08;;;;;;;82.20;46.90;;;1.70;99.90;;;;;;5051512;28;20448;-74
2023/12/06 11:00:34;;;;;;;93.33;44.47;;;1.80;99.90;;;;;;5070748;28;20428;-74
2023/12/06 11:03:01;;;;;;;88.20;45.60;;;1.80;99.90;;;;;;5059839;28;20516;-74
2023/12/06 11:05:30;;;;;;;87.47;45.07;;;1.70;99.90;;;;;;5049795;28;20433;-74
2023/12/06 11:08:14;;;;;;;83.30;44.47;;;1.70;99.90;;;;;;5056777;28;20600;-73
2023/12/06 11:10:42;;;;;;;84.93;46.67;;;1.70;99.90;;;;;;5067088;28;20490;-74
2023/12/06 11:13:20;;;;;;;97.10;47.97;;;1.50;99.90;;;;;;5048415;28;20484;-74
2023/12/06 11:16:17;;;;;;;97.70;49.10;;;1.50;99.90;;;;;;5049512;28;20516;-68
2023/12/06 11:18:51;;;;;;;94.50;44.33;;;1.60;99.90;;;;;;5047271;28;20442;-74
2023/12/06 11:21:19;;;;;;;85.90;46.27;;;1.70;99.90;;;;;;5062055;28;20494;-73
2023/12/06 11:23:48;;;;;;;102.53;48.37;;;1.60;99.90;;;;;;5067110;28;20908;-75
2023/12/06 11:26:14;;;;;;;92.63;45.00;;;1.60;99.90;;;;;;5043966;28;20932;-74
2023/12/06 11:28:41;;;;;;;84.70;44.20;;;1.60;99.90;;;;;;5050497;28;20457;-74
2023/12/06 11:31:11;;;;;;;94.73;48.60;;;1.70;99.90;;;;;;5051900;28;20455;-74
2023/12/06 11:33:37;;;;;;;98.40;47.20;;;1.80;99.90;;;;;;5051481;28;20421;-73
2023/12/06 11:36:03;;;;;;;97.70;45.20;;;1.80;99.90;;;;;;5048222;28;20517;-73
2023/12/06 11:38:33;;;;;;;97.10;47.73;;;1.70;99.90;;;;;;5056775;28;20448;-74
2023/12/06 11:40:59;;;;;;;88.20;46.13;;;1.70;99.90;;;;;;5070441;28;20433;-74
2023/12/06 11:43:37;;;;;;;94.13;47.03;;;1.60;99.90;;;;;;5071311;28;20938;-74
2023/12/06 11:46:10;;;;;;;79.87;44.73;;;1.70;99.90;;;;;;5049256;28;20452;-76
2023/12/06 11:48:47;;;;;;;92.53;46.53;;;1.80;99.90;;;;;;5047609;28;20469;-74
2023/12/06 11:51:20;;;;;;;91.93;45.77;;;1.90;99.90;;;;;;5071967;28;20495;-74
2023/12/06 11:53:46;;;;;;;93.33;45.93;;;1.70;99.90;;;;;;5059851;28;20424;-75
2023/12/06 11:56:12;;;;;;;83.30;44.80;;;1.50;99.90;;;;;;5055700;28;20482;-75
2023/12/06 11:58:38;;;;;;;96.37;46.70;;;1.30;99.90;;;;;;5064790;28;20440;-75
2023/12/06 12:01:05;;;;;;;99.77;46.87;;;1.20;99.90;;;;;;5050022;28;20540;-75
2023/12/06 12:03:31;;;;;;;93.03;48.47;;;1.20;99.90;;;;;;5052696;28;20455;-74
2023/12/06 12:05:58;;;;;;;97.57;45.57;;;1.10;99.90;;;;;;5065573;28;20428;-74
2023/12/06 12:08:24;;;;;;;88.47;47.20;;;1.20;99.90;;;;;;5070978;28;20543;-73
2023/12/06 12:10:51;;;;;;;89.57;45.10;;;1.30;99.90;;;;;;5072867;28;20407;-75
2023/12/06 12:13:20;;;;;;;89.53;47.87;;;1.30;99.90;;;;;;5060733;28;20427;-75
2023/12/06 12:15:57;;;;;;;100.87;46.27;;;1.20;99.90;;;;;;5050394;28;20432;-75
2023/12/06 12:18:25;;;;;;;100.63;47.23;;;1.20;99.90;;;;;;5049881;28;20453;-75
2023/12/06 12:20:50;;;;;;;96.50;47.70;;;1.30;1.00;;;;;;5050887;28;20429;-75
2023/12/06 12:23:16;;;;;;;88.73;45.73;;;1.50;1.00;;;;;;5052679;28;20416;-76
2023/12/06 12:25:49;;;;;;;84.83;45.93;;;1.60;1.00;;;;;;5062621;28;20200;-75
2023/12/06 12:28:19;;;;;;;85.53;46.13;;;1.60;1.00;;;;;;5051853;28;20210;-75
2023/12/06 12:30:52;;;;;;;103.97;48.10;;;1.50;1.00;;;;;;5051586;28;20415;-77
2023/12/06 12:33:19;;;;;;;90.03;47.93;;;1.50;1.00;;;;;;5049290;28;20413;-75
2023/12/06 12:35:45;;;;;;;91.00;46.50;;;1.40;1.00;;;;;;5050634;28;20463;-76
2023/12/06 12:38:11;;;;;;;118.47;50.10;;;1.30;1.00;;;;;;5056464;28;20421;-75
2023/12/06 12:40:39;;;;;;;99.90;50.00;;;1.20;1.00;;;;;;5055106;28;20423;-75